createdAt,value
2019-03-03T00:01:50.255Z,99556.56
2019-03-03T00:04:19.762Z,99559.27
2019-03-03T00:06:49.326Z,99552.17
2019-03-03T00:09:18.918Z,99544.74
2019-03-03T00:11:48.398Z,99547.09
2019-03-03T00:14:17.951Z,99548.95
2019-03-03T00:16:47.434Z,99544.55
2019-03-03T00:19:16.905Z,99544.70
2019-03-03T00:21:46.419Z,99541.32
2019-03-03T00:24:15.929Z,99532.19
2019-03-03T00:26:45.416Z,99529.84
2019-03-03T00:29:16.981Z,99530.49
2019-03-03T00:31:46.163Z,99533.53
2019-03-03T00:34:15.693Z,99528.14
2019-03-03T00:37:04.381Z,99523.75
2019-03-03T00:40:11.221Z,99525.59
2019-03-03T00:42:45.618Z,99524.09
2019-03-03T00:45:32.727Z,99522.09
2019-03-03T00:48:13.685Z,99520.92
2019-03-03T00:50:56.315Z,99528.17
2019-03-03T00:53:48.088Z,99528.86
2019-03-03T00:56:48.606Z,99532.56
2019-03-03T00:59:35.664Z,99530.91
2019-03-03T01:02:27.201Z,99536.46
2019-03-03T01:05:29.833Z,99537.46
2019-03-03T01:08:25.664Z,99531.41
2019-03-03T01:11:14.061Z,99527.55
2019-03-03T01:14:05.444Z,99526.36
2019-03-03T01:16:53.918Z,99525.70
2019-03-03T01:19:40.694Z,99530.25
2019-03-03T01:22:34.795Z,99523.69
2019-03-03T01:25:04.727Z,99527.92
2019-03-03T01:27:34.191Z,99530.09
2019-03-03T01:30:04.556Z,99521.18
2019-03-03T01:32:34.120Z,99523.88
2019-03-03T01:35:03.606Z,99512.90
2019-03-03T01:37:33.153Z,99510.86
2019-03-03T01:40:02.616Z,99510.17
2019-03-03T01:42:32.129Z,99506.63
2019-03-03T01:45:01.653Z,99501.38
2019-03-03T01:47:31.119Z,99496.14
2019-03-03T01:50:00.579Z,99493.95
2019-03-03T01:52:30.133Z,99487.35
2019-03-03T01:54:59.602Z,99483.95
2019-03-03T01:57:29.193Z,99481.07
2019-03-03T01:59:58.735Z,99485.97
2019-03-03T02:02:28.343Z,99491.52
2019-03-03T02:04:57.916Z,99489.66
2019-03-03T02:07:27.475Z,99491.86
2019-03-03T02:09:56.936Z,99491.52
2019-03-03T02:12:26.419Z,99488.81
2019-03-03T02:14:55.892Z,99489.35
2019-03-03T02:17:25.471Z,99491.20
2019-03-03T02:19:55.043Z,99488.50
2019-03-03T02:22:25.247Z,99486.81
2019-03-03T02:24:54.814Z,99492.55
2019-03-03T02:27:24.404Z,99495.25
2019-03-03T02:29:53.875Z,99493.91
2019-03-03T02:32:23.351Z,99497.26
2019-03-03T02:34:52.861Z,99501.81
2019-03-03T02:37:22.333Z,99499.95
2019-03-03T02:39:52.068Z,99496.75
2019-03-03T02:42:21.554Z,99485.80
2019-03-03T02:44:51.829Z,99485.66
2019-03-03T02:47:21.333Z,99491.71
2019-03-03T02:49:50.870Z,99495.10
2019-03-03T02:52:20.339Z,99490.90
2019-03-03T02:54:49.810Z,99490.59
2019-03-03T02:57:19.341Z,99493.28
2019-03-03T02:59:48.819Z,99481.30
2019-03-03T03:02:43.648Z,99484.00
2019-03-03T03:05:14.963Z,99474.25
2019-03-03T03:08:05.991Z,99462.41
2019-03-03T03:10:58.405Z,99463.77
2019-03-03T03:13:54.158Z,99466.61
2019-03-03T03:16:54.609Z,99464.41
2019-03-03T03:19:46.012Z,99454.27
2019-03-03T03:22:26.039Z,99452.73
2019-03-03T03:25:14.491Z,99453.92
2019-03-03T03:27:55.637Z,99450.88
2019-03-03T03:30:37.538Z,99446.98
2019-03-03T03:33:21.650Z,99451.18
2019-03-03T03:36:02.722Z,99444.94
2019-03-03T03:38:50.985Z,99446.09
2019-03-03T03:41:37.594Z,99435.48
2019-03-03T03:44:28.977Z,99426.55
2019-03-03T03:47:20.393Z,99426.73
2019-03-03T03:50:08.715Z,99425.39
2019-03-03T03:52:56.157Z,99424.89
2019-03-03T03:55:39.493Z,99428.09
2019-03-03T03:58:26.877Z,99433.98
2019-03-03T04:01:04.674Z,99431.79
2019-03-03T04:03:58.947Z,99435.84
2019-03-03T04:06:41.901Z,99428.25
2019-03-03T04:09:32.843Z,99423.19
2019-03-03T04:12:24.037Z,99420.69
2019-03-03T04:15:18.562Z,99413.79
2019-03-03T04:18:19.352Z,99419.20
2019-03-03T04:21:13.894Z,99417.19
2019-03-03T04:24:02.260Z,99424.29
2019-03-03T04:27:08.852Z,99409.30
2019-03-03T04:30:00.386Z,99409.80
2019-03-03T04:32:51.453Z,99398.70
2019-03-03T04:35:39.808Z,99398.51
2019-03-03T04:38:34.284Z,99390.41
2019-03-03T04:41:15.143Z,99394.61
2019-03-03T04:44:03.674Z,99391.56
2019-03-03T04:46:52.640Z,99390.86
2019-03-03T04:49:41.084Z,99390.16
2019-03-03T04:52:32.109Z,99385.11
2019-03-03T04:55:32.961Z,99378.52
2019-03-03T04:58:30.029Z,99375.97
2019-03-03T05:01:24.632Z,99360.42
2019-03-03T05:04:15.582Z,99363.46
2019-03-03T05:07:00.795Z,99355.37
2019-03-03T05:09:56.902Z,99356.21
2019-03-03T05:12:45.369Z,99351.32
2019-03-03T05:15:33.831Z,99364.31
2019-03-03T05:18:17.622Z,99355.02
2019-03-03T05:20:49.083Z,99341.03
2019-03-03T05:23:18.717Z,99342.23
2019-03-03T05:25:48.988Z,99339.88
2019-03-03T05:28:18.509Z,99337.67
2019-03-03T05:30:49.275Z,99333.44
2019-03-03T05:33:18.775Z,99331.23
2019-03-03T05:35:48.359Z,99326.88
2019-03-03T05:38:17.910Z,99318.28
2019-03-03T05:40:47.421Z,99312.55
2019-03-03T05:43:17.083Z,99309.00
2019-03-03T05:45:46.589Z,99302.75
2019-03-03T05:48:16.108Z,99300.61
2019-03-03T05:50:45.573Z,99295.27
2019-03-03T05:53:15.099Z,99291.73
2019-03-03T05:55:44.583Z,99285.19
2019-03-03T05:58:14.178Z,99292.63
2019-03-03T06:00:43.707Z,99284.20
2019-03-03T06:03:13.487Z,99267.66
2019-03-03T06:05:42.939Z,99263.62
2019-03-03T06:08:12.482Z,99260.11
2019-03-03T06:10:41.958Z,99257.91
2019-03-03T06:13:11.444Z,99267.36
2019-03-03T06:15:40.968Z,99272.90
2019-03-03T06:18:10.471Z,99264.61
2019-03-03T06:20:39.949Z,99246.41
2019-03-03T06:23:09.436Z,99238.45
2019-03-03T06:25:38.913Z,99236.41
2019-03-03T06:28:08.575Z,99234.36
2019-03-03T06:30:38.036Z,99230.11
2019-03-03T06:33:07.691Z,99227.25
2019-03-03T06:35:37.218Z,99223.00
2019-03-03T06:38:06.962Z,99227.73
2019-03-03T06:40:36.428Z,99223.34
2019-03-03T06:43:05.931Z,99223.69
2019-03-03T06:45:35.425Z,99225.53
2019-03-03T06:48:04.927Z,99220.64
2019-03-03T06:50:34.474Z,99218.31
2019-03-03T06:53:04.043Z,99214.17
2019-03-03T06:55:33.607Z,99208.00
2019-03-03T06:58:03.188Z,99210.97
2019-03-03T07:00:32.690Z,99211.04
2019-03-03T07:03:02.304Z,99206.33
2019-03-03T07:05:31.822Z,99207.73
2019-03-03T07:08:02.195Z,99205.89
2019-03-03T07:10:31.666Z,99200.00
2019-03-03T07:13:01.177Z,99200.90
2019-03-03T07:15:30.635Z,99194.02
2019-03-03T07:18:00.117Z,99191.98
2019-03-03T07:20:29.710Z,99183.24
2019-03-03T07:22:59.183Z,99181.75
2019-03-03T07:25:28.677Z,99177.05
2019-03-03T07:27:58.226Z,99175.86
2019-03-03T07:30:27.691Z,99173.36
2019-03-03T07:33:15.220Z,99176.25
2019-03-03T07:35:44.739Z,99171.02
2019-03-03T07:38:14.234Z,99173.27
2019-03-03T07:40:43.713Z,99173.27
2019-03-03T07:43:13.284Z,99166.69
2019-03-03T07:45:43.283Z,99169.38
2019-03-03T07:48:12.757Z,99175.78
2019-03-03T07:50:42.370Z,99164.69
2019-03-03T07:53:11.860Z,99161.80
2019-03-03T07:55:41.383Z,99154.05
2019-03-03T07:58:10.875Z,99150.85
2019-03-03T08:00:40.419Z,99147.76
2019-03-03T08:03:09.876Z,99143.45
2019-03-03T08:05:39.452Z,99145.07
2019-03-03T08:08:08.937Z,99135.22
2019-03-03T08:10:38.501Z,99127.77
2019-03-03T08:13:09.474Z,99124.73
2019-03-03T08:15:39.457Z,99118.13
2019-03-03T08:18:08.957Z,99112.20
2019-03-03T08:20:38.596Z,99112.41
2019-03-03T08:23:08.264Z,99108.55
2019-03-03T08:25:37.754Z,99113.00
2019-03-03T08:28:07.346Z,99103.45
2019-03-03T08:30:36.849Z,99096.61
2019-03-03T08:33:06.364Z,99099.33
2019-03-03T08:35:35.925Z,99094.33
2019-03-03T08:38:05.554Z,99090.95
2019-03-03T08:40:35.139Z,99098.09
2019-03-03T08:43:12.315Z,99091.52
2019-03-03T08:45:56.399Z,99084.46
2019-03-03T08:48:47.845Z,99082.78
2019-03-03T08:51:39.390Z,99076.73
2019-03-03T08:54:30.719Z,99066.13
2019-03-03T08:57:24.911Z,99063.28
2019-03-03T09:00:01.247Z,99057.05
2019-03-03T09:02:48.634Z,99053.70
2019-03-03T09:05:46.373Z,99032.84
2019-03-03T09:08:33.516Z,99031.86
2019-03-03T09:11:10.631Z,99025.82
2019-03-03T09:13:58.970Z,99022.78
2019-03-03T09:16:49.556Z,99014.70
2019-03-03T09:19:26.633Z,99008.47
2019-03-03T09:22:24.401Z,99001.23
2019-03-03T09:25:30.956Z,98995.34
2019-03-03T09:28:28.440Z,98983.86
2019-03-03T09:31:04.559Z,98973.64
2019-03-03T09:33:51.844Z,98977.24
2019-03-03T09:36:38.050Z,98964.72
2019-03-03T09:39:33.736Z,98955.70
2019-03-03T09:42:13.058Z,98945.19
2019-03-03T09:45:01.627Z,98941.72
2019-03-03T09:47:39.751Z,98938.98
2019-03-03T09:50:16.858Z,98936.59
2019-03-03T09:53:17.130Z,98931.20
2019-03-03T09:56:00.064Z,98925.81
2019-03-03T09:58:47.066Z,98920.28
2019-03-03T10:01:22.369Z,98920.85
2019-03-03T10:04:01.956Z,98918.09
2019-03-03T10:06:53.248Z,98911.08
2019-03-03T10:09:47.774Z,98912.31
2019-03-03T10:12:32.865Z,98911.71
2019-03-03T10:15:20.624Z,98907.22
2019-03-03T10:18:05.710Z,98903.21
2019-03-03T10:20:49.655Z,98889.59
2019-03-03T10:23:50.445Z,98892.16
2019-03-03T10:26:47.712Z,98880.73
2019-03-03T10:29:54.366Z,98883.09
2019-03-03T10:32:36.294Z,98868.80
2019-03-03T10:35:28.816Z,98866.28
2019-03-03T10:38:15.953Z,98866.78
2019-03-03T10:41:07.483Z,98855.84
2019-03-03T10:43:57.873Z,98849.17
2019-03-03T10:46:37.475Z,98846.25
2019-03-03T10:49:44.332Z,98844.33
2019-03-03T10:52:20.968Z,98837.59
2019-03-03T10:55:09.532Z,98841.22
2019-03-03T10:57:53.609Z,98833.84
2019-03-03T11:00:41.020Z,98833.09
2019-03-03T11:03:23.586Z,98830.66
2019-03-03T11:06:30.575Z,98824.76
2019-03-03T11:09:16.168Z,98816.16
2019-03-03T11:12:04.392Z,98811.20
2019-03-03T11:14:51.556Z,98800.78
2019-03-03T11:17:52.618Z,98796.66
2019-03-03T11:20:43.854Z,98795.47
2019-03-03T11:23:37.831Z,98789.16
2019-03-03T11:26:32.888Z,98781.70
2019-03-03T11:29:13.243Z,98778.33
2019-03-03T11:32:01.901Z,98771.05
2019-03-03T11:34:56.368Z,98768.17
2019-03-03T11:37:44.825Z,98757.69
2019-03-03T11:40:55.789Z,98755.65
2019-03-03T11:43:47.274Z,98753.59
2019-03-03T11:46:35.745Z,98745.11
2019-03-03T11:49:27.352Z,98740.34
2019-03-03T11:52:20.005Z,98737.98
2019-03-03T11:54:55.242Z,98739.12
2019-03-03T11:57:40.195Z,98731.16
2019-03-03T12:00:20.761Z,98731.88
2019-03-03T12:03:18.201Z,98729.89
2019-03-03T12:06:06.296Z,98727.58
2019-03-03T12:09:07.130Z,98726.94
2019-03-03T12:11:58.678Z,98718.06
2019-03-03T12:14:52.755Z,98714.94
2019-03-03T12:17:28.995Z,98708.13
2019-03-03T12:20:29.832Z,98702.61
2019-03-03T12:23:13.012Z,98696.45
2019-03-03T12:26:00.287Z,98688.38
2019-03-03T12:28:47.201Z,98677.80
2019-03-03T12:31:24.407Z,98667.77
2019-03-03T12:34:09.022Z,98665.86
2019-03-03T12:37:07.347Z,98674.41
2019-03-03T12:39:45.453Z,98663.83
2019-03-03T12:42:33.217Z,98658.11
2019-03-03T12:45:23.228Z,98656.70
2019-03-03T12:48:11.231Z,98641.58
2019-03-03T12:50:58.592Z,98642.66
2019-03-03T12:53:56.006Z,98640.75
2019-03-03T12:56:44.780Z,98638.29
2019-03-03T12:59:36.420Z,98632.17
2019-03-03T13:02:28.103Z,98633.13
2019-03-03T13:05:15.835Z,98635.11
2019-03-03T13:08:13.358Z,98628.70
2019-03-03T13:10:58.393Z,98625.28
2019-03-03T13:13:41.641Z,98626.63
2019-03-03T13:16:36.252Z,98629.95
2019-03-03T13:19:21.487Z,98622.19
2019-03-03T13:22:13.121Z,98614.60
2019-03-03T13:24:53.076Z,98613.77
2019-03-03T13:27:29.246Z,98608.58
2019-03-03T13:30:13.433Z,98605.55
2019-03-03T13:33:02.122Z,98596.83
2019-03-03T13:35:53.591Z,98596.89
2019-03-03T13:38:48.422Z,98598.00
2019-03-03T13:41:40.023Z,98600.28
2019-03-03T13:44:10.310Z,98598.48
2019-03-03T13:46:40.022Z,98607.30
2019-03-03T13:49:09.788Z,98610.17
2019-03-03T13:51:39.899Z,98606.00
2019-03-03T13:54:09.629Z,98607.69
2019-03-03T13:56:39.216Z,98608.70
2019-03-03T13:59:08.911Z,98603.31
2019-03-03T14:01:38.567Z,98607.05
2019-03-03T14:04:08.493Z,98609.54
2019-03-03T14:06:38.428Z,98601.57
2019-03-03T14:09:10.263Z,98606.91
2019-03-03T14:11:40.771Z,98598.39
2019-03-03T14:14:10.491Z,98599.68
2019-03-03T14:16:40.009Z,98595.75
2019-03-03T14:19:09.749Z,98602.49
2019-03-03T14:21:39.363Z,98597.22
2019-03-03T14:24:09.363Z,98604.59
2019-03-03T14:26:39.038Z,98598.17
2019-03-03T14:29:08.704Z,98598.80
2019-03-03T14:31:39.720Z,98595.89
2019-03-03T14:34:09.281Z,98600.27
2019-03-03T14:36:38.850Z,98603.81
2019-03-03T14:39:08.758Z,98596.44
2019-03-03T14:41:38.885Z,98600.98
2019-03-03T14:44:08.761Z,98596.10
2019-03-03T14:46:38.567Z,98499.52
2019-03-03T14:49:08.491Z,98591.94
2019-03-03T14:51:38.505Z,98599.20
2019-03-03T14:54:08.371Z,98593.80
2019-03-03T14:56:37.954Z,98591.61
2019-03-03T14:59:07.680Z,98595.88
2019-03-03T15:01:37.256Z,98600.09
2019-03-03T15:04:06.758Z,98603.52
2019-03-03T15:06:36.279Z,98604.74
2019-03-03T15:09:15.585Z,98606.48
2019-03-03T15:11:45.151Z,98608.55
2019-03-03T15:14:14.746Z,98606.58
2019-03-03T15:16:44.248Z,98611.34
2019-03-03T15:19:13.849Z,98607.98
2019-03-03T15:21:43.394Z,98608.52
2019-03-03T15:24:13.264Z,98606.00
2019-03-03T15:26:42.769Z,98607.05
2019-03-03T15:29:12.984Z,98614.61
2019-03-03T15:31:42.587Z,98617.52
2019-03-03T15:34:13.217Z,98618.86
2019-03-03T15:36:42.919Z,98623.23
2019-03-03T15:39:13.046Z,98622.52
2019-03-03T15:41:43.075Z,98619.10
2019-03-03T15:44:12.882Z,98621.73
2019-03-03T15:46:42.898Z,98616.97
2019-03-03T15:49:12.902Z,98612.21
2019-03-03T15:51:43.118Z,98616.16
2019-03-03T15:54:13.176Z,98615.77
2019-03-03T15:56:43.072Z,98616.44
2019-03-03T15:59:13.067Z,98621.95
2019-03-03T16:01:42.774Z,98627.64
2019-03-03T16:04:13.306Z,98623.92
2019-03-03T16:06:43.665Z,98625.06
2019-03-03T16:09:16.674Z,98564.73
2019-03-03T16:11:46.307Z,98632.55
2019-03-03T16:14:16.387Z,98634.45
2019-03-03T16:16:46.019Z,98634.75
2019-03-03T16:19:16.582Z,98635.91
2019-03-03T16:21:46.140Z,98639.42
2019-03-03T16:24:16.103Z,98633.34
2019-03-03T16:26:45.831Z,98630.63
2019-03-03T16:29:15.335Z,98631.14
2019-03-03T16:31:44.936Z,98642.45
2019-03-03T16:34:14.516Z,98645.66
2019-03-03T16:36:44.058Z,98652.41
2019-03-03T16:39:14.044Z,98659.36
2019-03-03T16:41:43.581Z,98666.50
2019-03-03T16:44:14.504Z,98667.22
2019-03-03T16:46:44.041Z,98667.61
2019-03-03T16:49:13.641Z,98658.38
2019-03-03T16:51:43.289Z,98665.30
2019-03-03T16:54:12.852Z,98672.25
2019-03-03T16:56:42.360Z,98679.17
2019-03-03T16:59:11.883Z,98683.94
2019-03-03T17:01:41.529Z,98687.48
2019-03-03T17:04:11.090Z,98686.77
2019-03-03T17:06:40.587Z,98688.32
2019-03-03T17:09:11.549Z,98692.37
2019-03-03T17:11:41.060Z,98698.06
2019-03-03T17:14:10.556Z,98702.44
2019-03-03T17:16:40.204Z,98699.02
2019-03-03T17:19:09.754Z,98694.59
2019-03-03T17:21:39.239Z,98698.42
2019-03-03T17:24:08.746Z,98698.76
2019-03-03T17:26:38.318Z,98698.55
2019-03-03T17:29:07.843Z,98701.06
2019-03-03T17:31:37.379Z,98690.58
2019-03-03T17:34:13.012Z,98695.46
2019-03-03T17:36:38.229Z,98701.70
2019-03-03T17:39:09.040Z,98703.89
2019-03-03T17:41:39.166Z,98701.91
2019-03-03T17:44:08.675Z,98703.95
2019-03-03T17:46:38.201Z,98709.76
2019-03-03T17:49:07.841Z,98716.89
2019-03-03T17:51:38.687Z,98708.17
2019-03-03T17:54:10.951Z,98719.77
2019-03-03T17:56:40.516Z,98727.69
2019-03-03T17:59:10.085Z,98727.69
2019-03-03T18:01:39.742Z,98722.80
2019-03-03T18:04:09.350Z,98726.21
2019-03-03T18:06:39.154Z,98723.06
2019-03-03T18:09:09.555Z,98718.38
2019-03-03T18:11:39.198Z,98718.77
2019-03-03T18:14:08.860Z,98726.10
2019-03-03T18:16:38.448Z,98730.70
2019-03-03T18:19:08.185Z,98731.30
2019-03-03T18:21:37.707Z,98733.87
2019-03-03T18:24:07.302Z,98731.38
2019-03-03T18:26:36.845Z,98739.14
2019-03-03T18:29:06.425Z,98735.94
2019-03-03T18:31:35.977Z,98741.45
2019-03-03T18:34:05.679Z,98735.05
2019-03-03T18:36:35.218Z,98734.33
2019-03-03T18:39:06.505Z,98739.84
2019-03-03T18:41:36.117Z,98751.60
2019-03-03T18:44:05.749Z,98753.38
2019-03-03T18:46:35.480Z,98758.27
2019-03-03T18:49:05.251Z,98754.05
2019-03-03T18:51:34.833Z,98755.19
2019-03-03T18:54:04.502Z,98756.33
2019-03-03T18:56:34.093Z,98758.52
2019-03-03T18:59:04.369Z,98753.96
2019-03-03T19:01:33.964Z,98755.64
2019-03-03T19:04:03.532Z,98761.67
2019-03-03T19:06:34.923Z,98757.30
2019-03-03T19:09:05.740Z,98759.48
2019-03-03T19:11:35.599Z,98757.63
2019-03-03T19:14:05.310Z,98757.80
2019-03-03T19:16:34.877Z,98773.86
2019-03-03T19:19:04.479Z,98762.64
2019-03-03T19:21:33.997Z,98759.11
2019-03-03T19:24:03.567Z,98771.45
2019-03-03T19:26:33.093Z,98767.13
2019-03-03T19:29:02.626Z,98773.95
2019-03-03T19:31:32.257Z,98772.84
2019-03-03T19:34:01.871Z,98775.42
2019-03-03T19:36:31.683Z,98767.53
2019-03-03T19:39:01.196Z,98767.07
2019-03-03T19:41:30.822Z,98759.66
2019-03-03T19:44:00.530Z,98765.44
2019-03-03T19:46:30.087Z,98771.54
2019-03-03T19:48:59.635Z,98773.06
2019-03-03T19:51:29.251Z,98768.89
2019-03-03T19:53:58.855Z,98774.48
2019-03-03T19:56:28.464Z,98781.39
2019-03-03T19:58:58.051Z,98782.95
2019-03-03T20:01:27.603Z,98793.73
2019-03-03T20:03:57.253Z,98786.66
2019-03-03T20:06:26.819Z,98791.03
2019-03-03T20:08:56.335Z,98793.22
2019-03-03T20:11:25.950Z,98791.88
2019-03-03T20:13:55.494Z,98798.41
2019-03-03T20:16:25.020Z,98796.89
2019-03-03T20:18:54.610Z,98805.63
2019-03-03T20:21:24.203Z,98810.64
2019-03-03T20:23:53.894Z,98807.44
2019-03-03T20:26:23.492Z,98800.36
2019-03-03T20:28:53.061Z,98794.63
2019-03-03T20:31:22.635Z,98800.73
2019-03-03T20:33:52.251Z,98806.63
2019-03-03T20:36:21.854Z,98804.98
2019-03-03T20:38:51.419Z,98807.85
2019-03-03T20:41:21.008Z,98807.01
2019-03-03T20:43:50.509Z,98803.67
2019-03-03T20:46:20.258Z,98794.44
2019-03-03T20:48:49.770Z,98794.95
2019-03-03T20:51:19.345Z,98785.52
2019-03-03T20:53:48.932Z,98784.16
2019-03-03T20:56:18.516Z,98780.83
2019-03-03T20:58:48.207Z,98781.84
2019-03-03T21:01:17.765Z,98782.55
2019-03-03T21:03:47.385Z,98779.86
2019-03-03T21:06:17.006Z,98792.20
2019-03-03T21:08:46.947Z,98798.09
2019-03-03T21:11:16.496Z,98803.48
2019-03-03T21:13:46.191Z,98803.15
2019-03-03T21:16:16.138Z,98806.55
2019-03-03T21:18:45.712Z,98811.61
2019-03-03T21:21:15.281Z,98817.64
2019-03-03T21:23:45.121Z,98813.93
2019-03-03T21:26:14.890Z,98812.01
2019-03-03T21:28:44.490Z,98808.77
2019-03-03T21:31:14.145Z,98812.53
2019-03-03T21:33:43.743Z,98820.08
2019-03-03T21:36:13.296Z,98820.00
2019-03-03T21:38:42.883Z,98821.18
2019-03-03T21:41:12.465Z,98820.80
2019-03-03T21:43:42.135Z,98815.23
2019-03-03T21:46:11.863Z,98815.03
2019-03-03T21:48:41.363Z,98816.71
2019-03-03T21:51:10.907Z,98817.05
2019-03-03T21:53:40.502Z,98818.70
2019-03-03T21:56:10.045Z,98818.53
2019-03-03T21:58:39.709Z,98821.02
2019-03-03T22:01:09.290Z,98830.25
2019-03-03T22:03:39.018Z,98822.50
2019-03-03T22:06:08.572Z,98822.50
2019-03-03T22:08:38.133Z,98819.16
2019-03-03T22:11:07.632Z,98812.08
2019-03-03T22:13:37.112Z,98814.48
2019-03-03T22:16:06.674Z,98817.55
2019-03-03T22:18:36.168Z,98814.73
2019-03-03T22:21:05.684Z,98812.91
2019-03-03T22:23:35.190Z,98819.16
2019-03-03T22:26:04.709Z,98818.73
2019-03-03T22:28:36.355Z,98823.48
2019-03-03T22:31:05.436Z,98829.25
2019-03-03T22:33:35.854Z,98825.08
2019-03-03T22:36:05.407Z,98825.75
2019-03-03T22:38:34.895Z,98821.58
2019-03-03T22:41:04.556Z,98810.66
2019-03-03T22:43:35.263Z,98809.52
2019-03-03T22:46:04.898Z,98817.40
2019-03-03T22:48:34.458Z,98809.44
2019-03-03T22:51:03.954Z,98803.63
2019-03-03T22:53:33.458Z,98799.01
2019-03-03T22:56:03.039Z,98807.69
2019-03-03T22:58:32.510Z,98807.27
2019-03-03T23:01:09.023Z,98808.75
2019-03-03T23:03:47.462Z,98809.01
2019-03-03T23:07:07.583Z,98811.33
2019-03-03T23:10:11.316Z,98805.73
2019-03-03T23:12:56.032Z,98812.17
2019-03-03T23:15:40.813Z,98814.48
2019-03-03T23:18:29.842Z,98824.34
2019-03-03T23:21:22.411Z,98827.12
2019-03-03T23:24:35.919Z,98831.41
2019-03-03T23:27:05.535Z,98818.70
2019-03-03T23:29:35.056Z,98812.92
2019-03-03T23:32:04.673Z,98818.34
2019-03-03T23:34:34.229Z,98815.85
2019-03-03T23:37:03.799Z,98812.19
2019-03-03T23:39:33.317Z,98824.52
2019-03-03T23:42:02.795Z,98815.75
2019-03-03T23:44:32.506Z,98817.30
2019-03-03T23:47:02.021Z,98824.88
2019-03-03T23:49:31.529Z,98823.47
2019-03-03T23:52:00.980Z,98822.73
2019-03-03T23:54:30.517Z,98812.84
2019-03-03T23:57:01.066Z,98816.31
2019-03-03T23:59:30.552Z,98812.23
